Latest Coastal Weather Observations for Colpoys Point

IDW60701

Issued at 11:03 am WST Saturday 5 December 2020 (issued every 10 minutes, with the page automatically refreshed every 10 minutes)

About coastal observations | Map of coastal stations | Coastal observations for WA | Marine services | Other Formats
Station Details ID: 009255 Name: COLPOYS POINT Lat: -32.23 Lon: 115.70 Height: 3.0 m
Data from the previous 72 hours. | See also: Recent months for locations in Western Australia
Date/Time
WST
Wind Sea
Height
m
Swell Vis
km
Cloud Weather Temp
°C
Press
MSL
hPa
Rain since
9am
mm
Dir  Spd
kts
Gust
kts
Height
m
Period
s
Dir
05/11:00am SSW 16 20 - - - - - - - - - -
05/10:30am SSW 17 21 - - - - - - - - - -
05/10:00am SSW 16 18 - - - - - - - - - -
05/09:30am SSW 16 21 - - - - - - - - - -
05/09:00am S 15 18 - - - - - - - - - -
05/08:30am SSE 13 18 - - - - - - - - - -
05/08:00am SE 14 17 - - - - - - - - - -
05/07:30am SSE 15 18 - - - - - - - - - -
05/07:00am SSE 14 17 - - - - - - - - - -
05/06:30am SSE 15 17 - - - - - - - - - -
05/06:00am SSE 13 16 - - - - - - - - - -
05/05:30am SSE 15 18 - - - - - - - - - -
05/05:00am SSE 13 15 - - - - - - - - - -
05/04:30am SSE 14 17 - - - - - - - - - -
05/04:00am SSE 14 16 - - - - - - - - - -
05/03:30am SSE 13 15 - - - - - - - - - -
05/03:00am SSE 12 14 - - - - - - - - - -
05/02:30am SSE 11 14 - - - - - - - - - -
05/02:00am SSE 13 16 - - - - - - - - - -
05/01:30am SSE 13 16 - - - - - - - - - -
05/01:00am S 17 20 - - - - - - - - - -
05/12:30am SSW 18 24 - - - - - - - - - -
05/12:00am SSW 20 24 - - - - - - - - - -
 
Date/Time
WST
Wind Sea
Height
m
Swell Vis
km
Cloud Weather Temp
°C
Press
MSL
hPa
Rain since
9am
mm
Dir  Spd
kts
Gust
kts
Height
m
Period
s
Dir
04/11:30pm SSW 21 26 - - - - - - - - - -
04/11:00pm SSW 21 26 - - - - - - - - - -
04/10:30pm SSW 19 22 - - - - - - - - - -
04/10:00pm SSW 19 26 - - - - - - - - - -
04/09:30pm SSW 20 25 - - - - - - - - - -
04/09:00pm SSW 20 24 - - - - - - - - - -
04/08:30pm SSW 18 22 - - - - - - - - - -
04/08:00pm SSW 19 24 - - - - - - - - - -
04/07:30pm SW 19 22 - - - - - - - - - -
04/07:00pm SSW 20 24 - - - - - - - - - -
04/06:30pm SW 19 22 - - - - - - - - - -
04/06:00pm SW 19 22 - - - - - - - - - -
04/05:30pm SSW 19 23 - - - - - - - - - -
04/05:00pm SW 19 24 - - - - - - - - - -
04/04:30pm SW 19 24 - - - - - - - - - -
04/04:00pm SW 19 25 - - - - - - - - - -
04/03:30pm SW 19 23 - - - - - - - - - -
04/03:00pm SW 20 24 - - - - - - - - - -
04/02:30pm SW 20 26 - - - - - - - - - -
04/02:00pm SW 18 24 - - - - - - - - - -
04/01:30pm WSW 17 22 - - - - - - - - - -
04/01:00pm WSW 14 18 - - - - - - - - - -
04/12:30pm WSW 14 20 - - - - - - - - - -
04/12:00pm WSW 15 19 - - - - - - - - - -
04/11:30am SW 16 19 - - - - - - - - - -
04/11:00am WSW 14 19 - - - - - - - - - -
04/10:30am WSW 15 19 - - - - - - - - - -
04/10:00am WSW 15 19 - - - - - - - - - -
04/09:30am WSW 14 19 - - - - - - - - - -
04/09:00am SW 11 15 - - - - - - - - - -
04/08:30am WSW 9 11 - - - - - - - - - -
04/08:00am SW 9 14 - - - - - - - - - -
04/07:30am SW 9 13 - - - - - - - - - -
04/07:00am SW 9 14 - - - - - - - - - -
04/06:30am SW 11 15 - - - - - - - - - -
04/06:00am S 8 15 - - - - - - - - - -
04/05:30am S 14 16 - - - - - - - - - -
04/05:00am SSW 16 19 - - - - - - - - - -
04/04:30am SSW 18 21 - - - - - - - - - -
04/04:00am SSW 19 22 - - - - - - - - - -
04/03:30am SSW 20 24 - - - - - - - - - -
04/03:00am SSW 21 26 - - - - - - - - - -
04/02:30am SSW 23 28 - - - - - - - - - -
04/02:00am SSW 24 28 - - - - - - - - - -
04/01:30am SSW 23 28 - - - - - - - - - -
04/01:00am SSW 26 30 - - - - - - - - - -
04/12:30am SSW 25 29 - - - - - - - - - -
04/12:00am SSW 25 31 - - - - - - - - - -
 
Date/Time
WST
Wind Sea
Height
m
Swell Vis
km
Cloud Weather Temp
°C
Press
MSL
hPa
Rain since
9am
mm
Dir  Spd
kts
Gust
kts
Height
m
Period
s
Dir
03/11:30pm SSW 24 29 - - - - - - - - - -
03/11:00pm SSW 26 31 - - - - - - - - - -
03/10:30pm SSW 25 31 - - - - - - - - - -
03/10:00pm SSW 23 30 - - - - - - - - - -
03/09:30pm SSW 21 27 - - - - - - - - - -
03/09:00pm SW 21 28 - - - - - - - - - -
03/08:30pm SSW 18 23 - - - - - - - - - -
03/08:00pm SW 17 20 - - - - - - - - - -
03/07:30pm SSW 17 21 - - - - - - - - - -
03/07:00pm SSW 19 22 - - - - - - - - - -
03/06:30pm SSW 20 24 - - - - - - - - - -
03/06:00pm SSW 18 22 - - - - - - - - - -
03/05:30pm SSW 18 21 - - - - - - - - - -
03/05:00pm SSW 20 24 - - - - - - - - - -
03/04:30pm SW 19 23 - - - - - - - - - -
03/04:00pm SW 19 23 - - - - - - - - - -
03/03:30pm SW 19 25 - - - - - - - - - -
03/03:00pm SSW 19 24 - - - - - - - - - -
03/02:30pm SSW 18 22 - - - - - - - - - -
03/02:00pm SW 18 22 - - - - - - - - - -
03/01:30pm SW 18 21 - - - - - - - - - -
03/01:00pm SW 18 22 - - - - - - - - - -
03/12:30pm SW 18 21 - - - - - - - - - -
03/12:00pm SW 17 20 - - - - - - - - - -
03/11:30am SW 16 19 - - - - - - - - - -
03/11:00am SSW 15 18 - - - - - - - - - -
03/10:30am SSW 13 15 - - - - - - - - - -
03/10:00am SSE 12 14 - - - - - - - - - -
03/09:30am SSE 9 10 - - - - - - - - - -
03/09:00am SSE 7 8 - - - - - - - - - -
03/08:30am SSE 7 9 - - - - - - - - - -
03/08:00am SE 9 10 - - - - - - - - - -
03/07:30am SSE 8 10 - - - - - - - - - -
03/07:00am SSE 10 11 - - - - - - - - - -
03/06:30am SSE 10 12 - - - - - - - - - -
03/06:00am SSE 13 15 - - - - - - - - - -
03/05:30am SSE 13 15 - - - - - - - - - -
03/05:00am SSE 10 13 - - - - - - - - - -
03/04:30am SSE 9 12 - - - - - - - - - -
03/04:00am SSE 11 13 - - - - - - - - - -
03/03:30am SSE 11 14 - - - - - - - - - -
03/03:00am S 15 17 - - - - - - - - - -
03/02:30am S 15 17 - - - - - - - - - -
03/02:00am S 16 18 - - - - - - - - - -
03/01:30am S 16 18 - - - - - - - - - -
03/01:00am S 16 18 - - - - - - - - - -
03/12:30am S 17 19 - - - - - - - - - -
03/12:00am S 17 22 - - - - - - - - - -
 
Date/Time
WST
Wind Sea
Height
m
Swell Vis
km
Cloud Weather Temp
°C
Press
MSL
hPa
Rain since
9am
mm
Dir  Spd
kts
Gust
kts
Height
m
Period
s
Dir
02/11:30pm S 18 22 - - - - - - - - - -
02/11:00pm S 19 22 - - - - - - - - - -
02/10:30pm S 20 23 - - - - - - - - - -
02/10:00pm SSW 20 24 - - - - - - - - - -
02/09:30pm SSW 20 23 - - - - - - - - - -
02/09:00pm SSW 19 22 - - - - - - - - - -
02/08:30pm SSW 19 21 - - - - - - - - - -
02/08:00pm SSW 20 23 - - - - - - - - - -
02/07:30pm SSW 19 23 - - - - - - - - - -
02/07:00pm SSW 19 22 - - - - - - - - - -
02/06:30pm SSW 19 22 - - - - - - - - - -
02/06:00pm SSW 19 21 - - - - - - - - - -
02/05:30pm SSW 19 22 - - - - - - - - - -
02/05:00pm SSW 20 24 - - - - - - - - - -
02/04:30pm SSW 21 26 - - - - - - - - - -
02/04:00pm SSW 20 24 - - - - - - - - - -
02/03:30pm SSW 18 21 - - - - - - - - - -
02/03:00pm SSW 18 23 - - - - - - - - - -
02/02:30pm SSW 17 21 - - - - - - - - - -
02/02:00pm SW 17 20 - - - - - - - - - -
02/01:30pm SW 17 20 - - - - - - - - - -
02/01:00pm SW 17 20 - - - - - - - - - -
02/12:30pm SW 16 20 - - - - - - - - - -
02/12:00pm SW 15 18 - - - - - - - - - -
02/11:30am SSW 13 16 - - - - - - - - - -

Other formats

Comma delimited format used in spreadsheet applications
http://www.bom.gov.au/fwo/IDW60701/IDW60701.99255.axf

JavaScript Object Notation format (JSON) in row-major order
http://www.bom.gov.au/fwo/IDW60701/IDW60701.99255.json

Data quality

Most of these data are generated automatically and are frequently updated. Quality checks on data are not normally performed. It is possible for incorrect values to appear. Refer to information at About Latest Weather Observations and please check the disclaimer before using these data.